createdAt,value
2022-09-22T00:00:08.339Z,11.40
2022-09-22T00:01:08.458Z,9.90
2022-09-22T00:02:08.392Z,12.10
2022-09-22T00:03:08.299Z,11.70
2022-09-22T00:04:08.306Z,9.80
2022-09-22T00:05:08.280Z,10.10
2022-09-22T00:06:08.269Z,14.10
2022-09-22T00:07:08.263Z,13.20
2022-09-22T00:08:08.269Z,11.50
2022-09-22T00:09:08.235Z,12.20
2022-09-22T00:10:08.228Z,11.60
2022-09-22T00:11:08.219Z,10.00
2022-09-22T00:12:08.356Z,10.30
2022-09-22T00:13:08.230Z,10.80
2022-09-22T00:14:08.265Z,10.10
2022-09-22T00:15:08.171Z,10.00
2022-09-22T00:16:08.211Z,12.20
2022-09-22T00:17:08.152Z,11.80
2022-09-22T00:18:08.142Z,11.10
2022-09-22T00:19:08.129Z,13.60
2022-09-22T00:20:08.119Z,13.40
2022-09-22T00:21:08.114Z,10.80
2022-09-22T00:22:08.099Z,13.80
2022-09-22T00:23:08.086Z,13.00
2022-09-22T00:24:08.261Z,10.10
2022-09-22T00:25:08.064Z,10.70
2022-09-22T00:26:08.056Z,9.90
2022-09-22T00:27:08.043Z,16.50
2022-09-22T00:28:08.040Z,10.50
2022-09-22T00:29:08.180Z,12.60
2022-09-22T00:30:08.011Z,12.00
2022-09-22T00:31:08.077Z,11.80
2022-09-22T00:32:08.045Z,10.00
2022-09-22T00:33:07.979Z,14.30
2022-09-22T00:34:07.968Z,11.20
2022-09-22T00:35:07.957Z,11.20
2022-09-22T00:36:07.947Z,10.40
2022-09-22T00:37:07.934Z,12.00
2022-09-22T00:38:07.926Z,9.80
2022-09-22T00:39:08.022Z,13.10
2022-09-22T00:40:07.956Z,9.10
2022-09-22T00:41:07.892Z,15.90
2022-09-22T00:42:07.882Z,11.70
2022-09-22T00:43:07.871Z,11.10
2022-09-22T00:44:07.935Z,11.20
2022-09-22T00:45:07.875Z,9.40
2022-09-22T00:46:07.840Z,10.40
2022-09-22T00:47:07.831Z,9.60
2022-09-22T00:48:07.820Z,10.40
2022-09-22T00:49:07.807Z,10.60
2022-09-22T00:50:07.797Z,9.10
2022-09-22T00:51:07.786Z,12.50
2022-09-22T00:52:07.781Z,9.10
2022-09-22T00:53:07.765Z,12.20
2022-09-22T00:54:07.754Z,10.60
2022-09-22T00:55:07.743Z,11.50
2022-09-22T00:56:07.737Z,11.60
2022-09-22T00:57:07.724Z,11.50
2022-09-22T00:58:07.714Z,12.00
2022-09-22T00:59:07.828Z,12.00
2022-09-22T01:00:07.689Z,10.60
2022-09-22T01:01:07.774Z,11.70
2022-09-22T01:02:07.737Z,9.80
2022-09-22T01:03:07.667Z,10.20
2022-09-22T01:04:07.649Z,11.20
2022-09-22T01:05:07.634Z,12.60
2022-09-22T01:06:07.626Z,10.90
2022-09-22T01:07:07.615Z,10.20
2022-09-22T01:08:07.606Z,9.30
2022-09-22T01:09:07.674Z,11.20
2022-09-22T01:10:07.588Z,11.10
2022-09-22T01:11:07.573Z,11.70
2022-09-22T01:12:07.564Z,11.70
2022-09-22T01:13:07.551Z,12.60
2022-09-22T01:14:07.549Z,13.50
2022-09-22T01:15:07.530Z,11.70
2022-09-22T01:16:07.625Z,9.10
2022-09-22T01:17:07.531Z,8.80
2022-09-22T01:18:07.500Z,9.20
2022-09-22T01:19:07.491Z,12.10
2022-09-22T01:20:07.478Z,13.70
2022-09-22T01:21:07.466Z,14.40
2022-09-22T01:22:07.460Z,10.20
2022-09-22T01:23:07.445Z,11.70
2022-09-22T01:24:07.436Z,15.80
2022-09-22T01:25:07.424Z,10.50
2022-09-22T01:26:07.419Z,11.70
2022-09-22T01:27:07.404Z,12.70
2022-09-22T01:28:07.394Z,10.80
2022-09-22T01:29:07.537Z,13.20
2022-09-22T01:30:07.377Z,10.80
2022-09-22T01:31:07.418Z,12.50
2022-09-22T01:32:07.353Z,12.20
2022-09-22T01:33:07.361Z,12.30
2022-09-22T01:34:07.332Z,14.10
2022-09-22T01:35:07.318Z,11.70
2022-09-22T01:36:07.309Z,12.20
2022-09-22T01:37:07.295Z,10.70
2022-09-22T01:38:07.289Z,12.10
2022-09-22T01:39:07.503Z,14.10
2022-09-22T01:40:07.337Z,10.50
2022-09-22T01:41:07.252Z,10.90
2022-09-22T01:42:07.244Z,9.80
2022-09-22T01:43:07.230Z,11.40
2022-09-22T01:44:07.220Z,14.20
2022-09-22T01:45:07.209Z,16.00
2022-09-22T01:46:07.256Z,15.50
2022-09-22T01:47:07.189Z,13.60
2022-09-22T01:48:07.182Z,17.30
2022-09-22T01:49:07.186Z,20.30
2022-09-22T01:50:07.153Z,20.50
2022-09-22T01:51:07.141Z,14.80
2022-09-22T01:52:07.131Z,17.30
2022-09-22T01:53:07.119Z,11.80
2022-09-22T01:54:07.205Z,14.30
2022-09-22T01:55:07.096Z,13.70
2022-09-22T01:56:07.087Z,13.70
2022-09-22T01:57:07.074Z,13.70
2022-09-22T01:58:07.065Z,12.60
2022-09-22T01:59:07.052Z,12.70
2022-09-22T02:00:07.043Z,13.20
2022-09-22T02:01:10.822Z,13.80
2022-09-22T02:02:07.147Z,18.30
2022-09-22T02:03:07.007Z,13.10
2022-09-22T02:04:07.003Z,16.40
2022-09-22T02:05:07.009Z,16.40
2022-09-22T02:06:06.978Z,14.20
2022-09-22T02:07:06.966Z,19.50
2022-09-22T02:08:06.956Z,15.30
2022-09-22T02:09:07.130Z,15.20
2022-09-22T02:10:06.932Z,13.50
2022-09-22T02:11:06.919Z,18.50
2022-09-22T02:12:06.911Z,16.40
2022-09-22T02:13:06.897Z,23.70
2022-09-22T02:14:06.895Z,13.30
2022-09-22T02:15:06.876Z,11.60
2022-09-22T02:16:07.070Z,15.40
2022-09-22T02:17:06.852Z,12.70
2022-09-22T02:18:06.840Z,14.80
2022-09-22T02:19:13.189Z,12.70
2022-09-22T02:20:07.848Z,15.80
2022-09-22T02:21:06.836Z,15.70
2022-09-22T02:22:06.800Z,12.90
2022-09-22T02:23:06.785Z,17.10
2022-09-22T02:24:06.886Z,12.70
2022-09-22T02:25:06.762Z,17.50
2022-09-22T02:26:06.755Z,15.70
2022-09-22T02:27:06.741Z,12.80
2022-09-22T02:28:06.736Z,12.20
2022-09-22T02:29:06.718Z,14.30
2022-09-22T02:30:06.712Z,20.10
2022-09-22T02:31:21.510Z,14.60
2022-09-22T02:32:07.850Z,19.70
2022-09-22T02:33:06.680Z,20.40
2022-09-22T02:34:06.668Z,19.40
2022-09-22T02:35:06.668Z,16.90
2022-09-22T02:36:06.643Z,18.60
2022-09-22T02:37:06.662Z,18.40
2022-09-22T02:38:06.621Z,17.90
2022-09-22T02:39:06.727Z,19.60
2022-09-22T02:40:06.647Z,20.20
2022-09-22T02:41:06.590Z,15.90
2022-09-22T02:42:06.575Z,14.40
2022-09-22T02:43:06.565Z,12.60
2022-09-22T02:44:06.555Z,12.40
2022-09-22T02:45:06.543Z,14.80
2022-09-22T02:46:06.583Z,17.40
2022-09-22T02:47:06.519Z,16.40
2022-09-22T02:48:06.511Z,13.40
2022-09-22T02:49:06.497Z,21.40
2022-09-22T02:50:06.488Z,18.80
2022-09-22T02:51:06.478Z,18.00
2022-09-22T02:52:06.466Z,18.80
2022-09-22T02:53:06.484Z,14.20
2022-09-22T02:54:06.702Z,13.80
2022-09-22T02:55:06.438Z,14.00
2022-09-22T02:56:06.426Z,18.60
2022-09-22T02:57:06.415Z,16.20
2022-09-22T02:58:06.400Z,14.10
2022-09-22T02:59:06.386Z,16.40
2022-09-22T03:00:06.381Z,14.50
2022-09-22T03:01:06.394Z,13.70
2022-09-22T03:02:06.361Z,13.40
2022-09-22T03:03:06.344Z,14.70
2022-09-22T03:04:06.335Z,14.90
2022-09-22T03:05:06.429Z,20.00
2022-09-22T03:06:06.312Z,16.40
2022-09-22T03:07:06.303Z,17.40
2022-09-22T03:08:06.290Z,24.10
2022-09-22T03:09:06.463Z,16.00
2022-09-22T03:10:06.270Z,15.10
2022-09-22T03:11:06.255Z,17.70
2022-09-22T03:12:06.244Z,15.60
2022-09-22T03:13:21.493Z,16.60
2022-09-22T03:14:07.262Z,15.80
2022-09-22T03:15:06.210Z,15.50
2022-09-22T03:16:06.284Z,14.60
2022-09-22T03:17:06.188Z,15.80
2022-09-22T03:18:06.183Z,17.10
2022-09-22T03:19:06.164Z,16.40
2022-09-22T03:20:06.165Z,12.60
2022-09-22T03:21:06.145Z,18.00
2022-09-22T03:22:06.134Z,15.00
2022-09-22T03:23:06.123Z,17.90
2022-09-22T03:24:06.188Z,16.60
2022-09-22T03:25:06.124Z,18.00
2022-09-22T03:26:06.092Z,20.20
2022-09-22T03:27:06.079Z,18.00
2022-09-22T03:28:06.067Z,19.20
2022-09-22T03:29:06.058Z,14.90
2022-09-22T03:30:06.053Z,14.70
2022-09-22T03:31:06.093Z,18.80
2022-09-22T03:32:06.025Z,21.70
2022-09-22T03:33:06.016Z,15.50
2022-09-22T03:34:06.002Z,14.60
2022-09-22T03:35:05.991Z,16.00
2022-09-22T03:36:05.980Z,16.20
2022-09-22T03:37:05.971Z,16.30
2022-09-22T03:38:05.957Z,17.90
2022-09-22T03:39:06.058Z,16.20
2022-09-22T03:40:05.992Z,19.50
2022-09-22T03:41:05.948Z,15.70
2022-09-22T03:42:05.915Z,19.80
2022-09-22T03:43:05.921Z,18.70
2022-09-22T03:44:05.891Z,18.80
2022-09-22T03:45:05.892Z,19.90
2022-09-22T03:46:05.920Z,17.60
2022-09-22T03:47:05.860Z,25.70
2022-09-22T03:48:05.847Z,20.30
2022-09-22T03:49:05.844Z,20.30
2022-09-22T03:50:05.827Z,24.30
2022-09-22T03:51:05.817Z,23.60
2022-09-22T03:52:05.804Z,20.70
2022-09-22T03:53:05.795Z,19.80
2022-09-22T03:54:05.902Z,17.40
2022-09-22T03:55:05.770Z,19.30
2022-09-22T03:56:05.761Z,22.30
2022-09-22T03:57:05.771Z,21.20
2022-09-22T03:58:05.736Z,20.40
2022-09-22T03:59:05.731Z,17.60
2022-09-22T04:01:05.771Z,15.90
2022-09-22T04:02:05.762Z,20.80
2022-09-22T04:03:05.718Z,18.30
2022-09-22T04:04:05.671Z,20.90
2022-09-22T04:05:05.664Z,21.80
2022-09-22T04:06:05.649Z,19.50
2022-09-22T04:07:07.287Z,18.40
2022-09-22T04:08:05.635Z,19.30
2022-09-22T04:09:05.713Z,23.00
2022-09-22T04:10:05.617Z,23.40
2022-09-22T04:11:05.628Z,19.80
2022-09-22T04:12:05.642Z,21.30
2022-09-22T04:13:05.663Z,19.10
2022-09-22T04:14:05.708Z,32.50
2022-09-22T04:15:05.831Z,24.90
2022-09-22T04:16:05.691Z,19.00
2022-09-22T04:17:05.805Z,20.50
2022-09-22T04:18:05.574Z,17.30
2022-09-22T04:19:05.509Z,32.50
2022-09-22T04:20:05.497Z,27.90
2022-09-22T04:21:05.616Z,26.70
2022-09-22T04:22:05.474Z,26.10
2022-09-22T04:23:05.467Z,24.20
2022-09-22T04:24:05.587Z,19.40
2022-09-22T04:25:05.442Z,23.50
2022-09-22T04:26:05.433Z,22.90
2022-09-22T04:27:21.356Z,29.20
2022-09-22T04:28:06.441Z,23.40
2022-09-22T04:29:05.424Z,25.80
2022-09-22T04:30:05.389Z,24.80
2022-09-22T04:31:05.490Z,24.20
2022-09-22T04:32:05.366Z,24.20
2022-09-22T04:33:05.356Z,25.10
2022-09-22T04:34:07.590Z,28.20
2022-09-22T04:35:05.342Z,28.60
2022-09-22T04:36:05.323Z,20.70
2022-09-22T04:37:05.313Z,27.20
2022-09-22T04:38:05.300Z,23.60
2022-09-22T04:39:05.424Z,22.00
2022-09-22T04:40:05.312Z,23.60
2022-09-22T04:41:05.270Z,28.20
2022-09-22T04:42:05.258Z,26.10
2022-09-22T04:43:05.249Z,27.20
2022-09-22T04:44:05.237Z,27.00
2022-09-22T04:45:05.246Z,25.00
2022-09-22T04:46:05.263Z,26.60
2022-09-22T04:47:05.205Z,22.10
2022-09-22T04:48:05.191Z,23.50
2022-09-22T04:49:05.185Z,29.40
2022-09-22T04:50:05.174Z,24.80
2022-09-22T04:51:05.165Z,31.10
2022-09-22T04:52:05.150Z,30.10
2022-09-22T04:53:05.140Z,28.80
2022-09-22T04:54:05.176Z,26.60
2022-09-22T04:55:05.117Z,28.30
2022-09-22T04:56:05.106Z,31.10
2022-09-22T04:57:05.095Z,33.30
2022-09-22T04:58:05.121Z,30.20
2022-09-22T04:59:05.156Z,28.60
2022-09-22T05:00:05.095Z,27.00
2022-09-22T05:01:05.155Z,28.40
2022-09-22T05:02:05.046Z,33.80
2022-09-22T05:03:05.077Z,29.10
2022-09-22T05:04:05.017Z,28.70
2022-09-22T05:05:05.009Z,29.90
2022-09-22T05:06:04.994Z,33.20
2022-09-22T05:07:05.249Z,35.50
2022-09-22T05:08:04.994Z,35.20
2022-09-22T05:09:05.120Z,28.40
2022-09-22T05:10:04.950Z,34.60
2022-09-22T05:11:04.949Z,24.80
2022-09-22T05:12:04.928Z,24.00
2022-09-22T05:13:04.922Z,29.20
2022-09-22T05:14:04.907Z,30.50
2022-09-22T05:15:04.896Z,24.20
2022-09-22T05:16:04.975Z,26.20
2022-09-22T05:17:04.899Z,29.20
2022-09-22T05:18:04.873Z,33.50
2022-09-22T05:19:04.854Z,29.40
2022-09-22T05:20:04.842Z,37.00
2022-09-22T05:21:04.842Z,31.00
2022-09-22T05:22:04.820Z,28.40
2022-09-22T05:23:04.810Z,31.10
2022-09-22T05:24:04.797Z,33.30
2022-09-22T05:25:04.790Z,25.60
2022-09-22T05:26:04.776Z,26.40
2022-09-22T05:27:04.780Z,37.30
2022-09-22T05:28:04.759Z,35.80
2022-09-22T05:29:04.745Z,29.50
2022-09-22T05:30:04.752Z,31.90
2022-09-22T05:31:04.727Z,37.30
2022-09-22T05:32:04.771Z,27.00
2022-09-22T05:33:04.722Z,29.40
2022-09-22T05:34:04.693Z,34.30
2022-09-22T05:35:04.679Z,34.30
2022-09-22T05:36:04.667Z,33.70
2022-09-22T05:37:04.662Z,31.70
2022-09-22T05:38:04.651Z,39.20
2022-09-22T05:39:04.752Z,30.20
2022-09-22T05:40:04.667Z,29.70
2022-09-22T05:41:04.615Z,30.70
2022-09-22T05:42:08.861Z,31.80
2022-09-22T05:43:05.623Z,29.40
2022-09-22T05:44:04.601Z,38.70
2022-09-22T05:45:04.569Z,31.20
2022-09-22T05:46:04.581Z,29.40
2022-09-22T05:47:04.548Z,35.00
2022-09-22T05:48:04.539Z,28.60
2022-09-22T05:49:04.554Z,29.70
2022-09-22T05:50:04.512Z,28.00
2022-09-22T05:51:04.506Z,27.80
2022-09-22T05:52:04.491Z,31.00
2022-09-22T05:53:04.485Z,24.40
2022-09-22T05:54:04.476Z,30.00
2022-09-22T05:55:04.459Z,24.60
2022-09-22T05:56:04.451Z,25.10
2022-09-22T05:57:04.464Z,30.70
2022-09-22T05:58:04.454Z,32.80
2022-09-22T05:59:04.432Z,34.30
2022-09-22T06:00:04.405Z,29.00
2022-09-22T06:01:04.559Z,28.30
2022-09-22T06:02:18.041Z,30.40
2022-09-22T06:03:04.486Z,28.90
2022-09-22T06:04:04.362Z,27.70
2022-09-22T06:05:04.373Z,40.20
2022-09-22T06:06:04.346Z,36.90
2022-09-22T06:07:04.329Z,39.70
2022-09-22T06:08:04.316Z,35.00
2022-09-22T06:09:04.395Z,34.80
2022-09-22T06:10:04.304Z,32.50
2022-09-22T06:11:04.283Z,31.50
2022-09-22T06:12:04.271Z,29.80
2022-09-22T06:13:04.260Z,35.30
2022-09-22T06:14:04.250Z,31.40
2022-09-22T06:15:04.249Z,27.40
2022-09-22T06:16:04.276Z,28.40
2022-09-22T06:17:04.219Z,25.20
2022-09-22T06:18:04.207Z,26.70
2022-09-22T06:19:04.198Z,24.20
2022-09-22T06:20:04.181Z,25.30
2022-09-22T06:21:04.196Z,26.20
2022-09-22T06:22:04.177Z,24.40
2022-09-22T06:23:04.171Z,27.50
2022-09-22T06:24:04.146Z,26.80
2022-09-22T06:25:04.133Z,27.40
2022-09-22T06:26:04.127Z,28.60
2022-09-22T06:27:04.114Z,24.30
2022-09-22T06:28:04.110Z,31.80
2022-09-22T06:29:04.144Z,25.10
2022-09-22T06:30:04.082Z,28.30
2022-09-22T06:31:04.063Z,26.10
2022-09-22T06:32:04.099Z,25.70
2022-09-22T06:33:04.043Z,24.90
2022-09-22T06:34:07.505Z,25.70
2022-09-22T06:35:04.107Z,24.70
2022-09-22T06:36:04.010Z,25.60
2022-09-22T06:37:04.025Z,25.00
2022-09-22T06:38:03.983Z,25.10
2022-09-22T06:39:03.973Z,25.50
2022-09-22T06:40:04.148Z,25.70
2022-09-22T06:41:03.952Z,28.70
2022-09-22T06:42:03.940Z,26.60
2022-09-22T06:43:03.931Z,28.30
2022-09-22T06:44:03.918Z,26.40
2022-09-22T06:45:03.906Z,27.30
2022-09-22T06:46:03.948Z,29.30
2022-09-22T06:47:04.082Z,24.60
2022-09-22T06:48:08.923Z,26.20
2022-09-22T06:49:03.863Z,28.10
2022-09-22T06:50:03.856Z,29.60
2022-09-22T06:51:03.850Z,27.10
2022-09-22T06:52:03.833Z,27.20
2022-09-22T06:53:03.849Z,34.00
2022-09-22T06:54:03.809Z,26.00
2022-09-22T06:55:03.808Z,26.70
2022-09-22T06:56:03.822Z,25.30
2022-09-22T06:57:03.992Z,28.10
2022-09-22T06:58:03.775Z,28.10
2022-09-22T06:59:10.220Z,25.10
2022-09-22T07:00:04.780Z,29.60
2022-09-22T07:01:08.928Z,34.30
2022-09-22T07:02:03.880Z,29.70
2022-09-22T07:03:03.715Z,24.60
2022-09-22T07:04:03.703Z,32.30
2022-09-22T07:05:03.690Z,29.20
2022-09-22T07:06:03.677Z,27.80
2022-09-22T07:07:03.675Z,31.00
2022-09-22T07:08:03.964Z,38.60
2022-09-22T07:09:03.669Z,31.60
2022-09-22T07:10:03.640Z,34.10
2022-09-22T07:11:03.625Z,33.70
2022-09-22T07:12:03.613Z,34.50
2022-09-22T07:13:03.600Z,30.10
2022-09-22T07:14:03.592Z,29.30
2022-09-22T07:15:03.583Z,31.20
2022-09-22T07:16:03.633Z,32.40
2022-09-22T07:17:03.602Z,31.30
2022-09-22T07:18:03.935Z,29.10
2022-09-22T07:19:03.536Z,24.90
2022-09-22T07:20:03.524Z,23.10
2022-09-22T07:21:03.510Z,26.70
2022-09-22T07:22:03.504Z,27.70
2022-09-22T07:23:03.492Z,18.30
2022-09-22T07:24:03.484Z,24.00
2022-09-22T07:25:03.498Z,23.40
2022-09-22T07:26:03.458Z,18.20
2022-09-22T07:27:03.451Z,20.30
2022-09-22T07:28:03.455Z,24.40
2022-09-22T07:29:03.637Z,19.00
2022-09-22T07:30:03.697Z,25.40
2022-09-22T07:31:03.464Z,23.00
2022-09-22T07:32:03.426Z,16.40
2022-09-22T07:33:03.381Z,18.60
2022-09-22T07:34:03.370Z,20.80
2022-09-22T07:35:03.373Z,20.00
2022-09-22T07:36:03.347Z,22.10
2022-09-22T07:37:03.339Z,15.70
2022-09-22T07:38:03.347Z,20.80
2022-09-22T07:39:03.315Z,22.90
2022-09-22T07:40:03.611Z,17.40
2022-09-22T07:41:03.571Z,18.20
2022-09-22T07:42:03.284Z,17.10
2022-09-22T07:43:03.270Z,18.10
2022-09-22T07:44:03.259Z,22.30
2022-09-22T07:45:03.249Z,15.80
2022-09-22T07:46:03.239Z,14.80
2022-09-22T07:47:03.368Z,16.50
2022-09-22T07:48:03.219Z,15.60
2022-09-22T07:49:03.203Z,17.00
2022-09-22T07:50:03.195Z,12.50
2022-09-22T07:51:03.233Z,13.50
2022-09-22T07:52:03.332Z,16.20
2022-09-22T07:53:03.447Z,17.90
2022-09-22T07:54:03.182Z,12.80
2022-09-22T07:55:03.162Z,15.20
2022-09-22T07:56:03.143Z,14.50
2022-09-22T07:57:03.171Z,13.20
2022-09-22T07:58:03.307Z,13.40
2022-09-22T07:59:03.310Z,14.80
2022-09-22T08:00:03.311Z,12.60
2022-09-22T08:01:03.395Z,10.80
2022-09-22T08:02:03.339Z,12.30
2022-09-22T08:03:03.313Z,12.00
2022-09-22T08:04:03.113Z,10.50
2022-09-22T08:05:03.027Z,11.70
2022-09-22T08:06:06.079Z,10.60
2022-09-22T08:07:03.004Z,13.20
2022-09-22T08:08:02.996Z,17.80
2022-09-22T08:09:02.984Z,11.80
2022-09-22T08:10:02.974Z,11.80
2022-09-22T08:11:02.967Z,12.30
2022-09-22T08:12:02.956Z,14.70
2022-09-22T08:13:02.969Z,10.70
2022-09-22T08:14:02.938Z,13.90
2022-09-22T08:15:02.950Z,12.90
2022-09-22T08:16:02.967Z,11.10
2022-09-22T08:17:02.898Z,14.20
2022-09-22T08:18:02.891Z,12.40
2022-09-22T08:19:02.874Z,13.90
2022-09-22T08:20:02.866Z,15.50
2022-09-22T08:21:02.856Z,10.70
2022-09-22T08:22:02.850Z,9.00
2022-09-22T08:23:02.935Z,11.70
2022-09-22T08:24:02.821Z,14.60
2022-09-22T08:25:02.818Z,10.10
2022-09-22T08:26:02.953Z,10.40
2022-09-22T08:27:02.793Z,9.90
2022-09-22T08:28:02.789Z,11.40
2022-09-22T08:29:02.793Z,12.00
2022-09-22T08:30:02.766Z,11.30
2022-09-22T08:31:02.872Z,9.90
2022-09-22T08:32:02.738Z,9.40
2022-09-22T08:33:02.724Z,10.10
2022-09-22T08:34:02.716Z,7.40
2022-09-22T08:35:02.750Z,10.10
2022-09-22T08:36:02.729Z,13.40
2022-09-22T08:37:02.680Z,8.70
2022-09-22T08:38:02.674Z,12.70
2022-09-22T08:39:02.659Z,10.10
2022-09-22T08:40:02.705Z,9.20
2022-09-22T08:41:02.639Z,9.50
2022-09-22T08:42:02.629Z,6.80
2022-09-22T08:43:02.618Z,10.80
2022-09-22T08:44:02.606Z,10.00
2022-09-22T08:45:02.638Z,10.50
2022-09-22T08:46:02.587Z,9.90
2022-09-22T08:47:02.630Z,12.40
2022-09-22T08:48:02.565Z,9.20
2022-09-22T08:49:02.550Z,11.60
2022-09-22T08:50:02.543Z,9.70
2022-09-22T08:51:02.534Z,9.80
2022-09-22T08:52:02.528Z,9.60
2022-09-22T08:53:02.510Z,9.30
2022-09-22T08:54:03.649Z,11.80
2022-09-22T08:55:02.484Z,10.60
2022-09-22T08:56:02.483Z,13.70
2022-09-22T08:57:02.497Z,13.00
2022-09-22T08:58:02.458Z,13.20
2022-09-22T08:59:02.442Z,10.10
2022-09-22T09:00:02.471Z,10.50
2022-09-22T09:01:02.455Z,12.10
2022-09-22T09:02:02.540Z,10.20
2022-09-22T09:03:02.596Z,8.60
2022-09-22T09:04:02.400Z,7.80
2022-09-22T09:05:02.377Z,9.30
2022-09-22T09:06:02.370Z,8.00
2022-09-22T09:07:02.357Z,10.40
2022-09-22T09:08:02.350Z,6.30
2022-09-22T09:09:05.097Z,11.50
2022-09-22T09:10:02.333Z,8.70
2022-09-22T09:11:02.316Z,11.90
2022-09-22T09:12:02.306Z,10.20
2022-09-22T09:13:02.333Z,8.50
2022-09-22T09:14:02.298Z,11.80
2022-09-22T09:15:02.271Z,7.70
2022-09-22T09:16:02.397Z,6.90
2022-09-22T09:17:02.282Z,10.00
2022-09-22T09:18:02.250Z,9.70
2022-09-22T09:19:02.231Z,10.40
2022-09-22T09:20:02.221Z,8.80
2022-09-22T09:21:02.209Z,11.00
2022-09-22T09:22:02.197Z,7.40
2022-09-22T09:23:02.188Z,8.40
2022-09-22T09:26:02.156Z,8.70
2022-09-22T09:27:02.154Z,10.90
2022-09-22T09:28:02.137Z,8.90
2022-09-22T09:29:04.024Z,10.10
2022-09-22T09:30:02.114Z,10.50
2022-09-22T09:31:02.146Z,11.30
2022-09-22T09:32:02.093Z,8.20
2022-09-22T09:33:02.139Z,8.80
2022-09-22T09:34:02.091Z,7.70
2022-09-22T09:35:02.146Z,6.90
2022-09-22T09:36:02.053Z,8.80
2022-09-22T09:37:02.044Z,11.90
2022-09-22T09:38:02.031Z,8.40
2022-09-22T09:39:02.021Z,8.20
2022-09-22T09:40:02.087Z,11.30
2022-09-22T09:41:01.999Z,7.10
2022-09-22T09:42:01.993Z,8.90
2022-09-22T09:43:03.339Z,8.50
2022-09-22T09:44:01.969Z,8.90
2022-09-22T09:45:01.957Z,9.90
2022-09-22T09:46:02.051Z,10.70
2022-09-22T09:47:01.936Z,7.90
2022-09-22T09:48:01.934Z,15.00
2022-09-22T09:49:01.959Z,8.00
2022-09-22T09:50:02.445Z,10.00
2022-09-22T09:51:01.895Z,5.90
2022-09-22T09:52:01.947Z,7.80
2022-09-22T09:53:01.871Z,8.90
2022-09-22T09:54:01.942Z,10.30
2022-09-22T09:55:01.853Z,9.70
2022-09-22T09:56:01.846Z,7.70
2022-09-22T09:57:01.830Z,6.60
2022-09-22T09:58:01.821Z,5.80
2022-09-22T09:59:01.808Z,9.30
2022-09-22T10:00:01.810Z,10.70
2022-09-22T10:01:01.792Z,7.60
2022-09-22T10:02:01.875Z,9.60
2022-09-22T10:03:01.767Z,11.00
2022-09-22T10:04:01.786Z,8.90
2022-09-22T10:05:01.769Z,9.00
2022-09-22T10:06:01.744Z,8.50
2022-09-22T10:07:01.833Z,5.40
2022-09-22T10:08:01.728Z,9.90
2022-09-22T10:09:01.709Z,9.30
2022-09-22T10:10:01.696Z,7.80
2022-09-22T10:11:01.689Z,8.30
2022-09-22T10:12:01.699Z,8.70
2022-09-22T10:13:01.665Z,6.90
2022-09-22T10:14:01.652Z,8.00
2022-09-22T10:15:01.642Z,10.30
2022-09-22T10:16:01.720Z,8.80
2022-09-22T10:17:01.619Z,5.50
2022-09-22T10:18:01.619Z,12.50
2022-09-22T10:19:01.598Z,8.30
2022-09-22T10:20:01.591Z,10.80
2022-09-22T10:21:01.610Z,6.40
2022-09-22T10:22:01.575Z,8.30
2022-09-22T10:23:01.595Z,8.50
2022-09-22T10:24:01.714Z,6.60
2022-09-22T10:25:01.547Z,11.80
2022-09-22T10:26:01.528Z,6.30
2022-09-22T10:27:03.964Z,8.40
2022-09-22T10:28:01.513Z,7.90
2022-09-22T10:29:01.495Z,6.80
2022-09-22T10:30:01.488Z,6.50
2022-09-22T10:31:01.546Z,8.20
2022-09-22T10:32:01.493Z,6.30
2022-09-22T10:33:01.460Z,10.60
2022-09-22T10:34:01.449Z,8.00
2022-09-22T10:35:01.433Z,8.00
2022-09-22T10:36:01.432Z,7.50
2022-09-22T10:37:01.553Z,5.90
2022-09-22T10:38:01.402Z,6.50
2022-09-22T10:39:01.509Z,6.20
2022-09-22T10:40:01.462Z,9.10
2022-09-22T10:41:01.370Z,7.70
2022-09-22T10:42:01.364Z,6.20
2022-09-22T10:43:01.375Z,7.70
2022-09-22T10:44:15.544Z,9.40
2022-09-22T10:45:01.330Z,14.80
2022-09-22T10:46:01.569Z,8.40
2022-09-22T10:47:01.312Z,4.80
2022-09-22T10:48:01.298Z,7.90
2022-09-22T10:49:01.288Z,8.40
2022-09-22T10:50:01.284Z,6.60
2022-09-22T10:51:01.269Z,9.20
2022-09-22T10:52:01.259Z,10.10
2022-09-22T10:53:01.278Z,7.00
2022-09-22T10:54:01.267Z,6.80
2022-09-22T10:55:01.259Z,8.10
2022-09-22T10:56:01.230Z,8.40
2022-09-22T10:57:01.208Z,5.80
2022-09-22T10:58:01.193Z,6.50
2022-09-22T10:59:01.184Z,5.70
2022-09-22T11:00:01.176Z,5.20
2022-09-22T11:01:01.162Z,4.70
2022-09-22T11:02:01.204Z,6.20
2022-09-22T11:03:01.148Z,4.60
2022-09-22T11:04:01.276Z,6.80
2022-09-22T11:05:01.179Z,6.60
2022-09-22T11:06:01.120Z,9.60
2022-09-22T11:07:01.122Z,6.10
2022-09-22T11:08:01.111Z,6.20
2022-09-22T11:09:01.099Z,7.30
2022-09-22T11:10:01.071Z,7.40
2022-09-22T11:11:01.060Z,5.50
2022-09-22T11:12:01.048Z,7.60
2022-09-22T11:13:01.032Z,6.00
2022-09-22T11:14:01.023Z,5.30
2022-09-22T11:15:01.016Z,7.80
2022-09-22T11:16:01.073Z,7.10
2022-09-22T11:17:01.002Z,7.40
2022-09-22T11:18:00.990Z,4.20
2022-09-22T11:19:00.970Z,6.40
2022-09-22T11:20:00.963Z,6.40
2022-09-22T11:21:00.952Z,5.90
2022-09-22T11:22:00.939Z,6.00
2022-09-22T11:23:00.925Z,6.90
2022-09-22T11:24:00.919Z,7.00
2022-09-22T11:25:00.944Z,3.80
2022-09-22T11:26:00.897Z,6.60
2022-09-22T11:27:00.910Z,6.80
2022-09-22T11:28:01.027Z,4.60
2022-09-22T11:29:01.023Z,5.20
2022-09-22T11:30:00.957Z,9.50
2022-09-22T11:31:01.034Z,5.60
2022-09-22T11:32:00.981Z,6.60
2022-09-22T11:33:01.003Z,5.80
2022-09-22T11:34:00.966Z,6.20
2022-09-22T11:35:00.887Z,5.10
2022-09-22T11:36:00.787Z,8.20
2022-09-22T11:37:00.778Z,5.00
2022-09-22T11:38:00.778Z,4.10
2022-09-22T11:39:00.760Z,7.90
2022-09-22T11:40:00.789Z,5.20
2022-09-22T11:41:00.763Z,8.00
2022-09-22T11:42:00.729Z,7.80
2022-09-22T11:43:03.853Z,6.90
2022-09-22T11:44:00.785Z,6.50
2022-09-22T11:45:00.695Z,7.60
2022-09-22T11:46:00.728Z,6.50
2022-09-22T11:47:00.669Z,5.60
2022-09-22T11:48:00.664Z,6.80
2022-09-22T11:49:00.655Z,6.50
2022-09-22T11:50:00.642Z,8.20
2022-09-22T11:51:00.686Z,6.10
2022-09-22T11:52:00.625Z,4.10
2022-09-22T11:53:00.607Z,6.60
2022-09-22T11:54:00.680Z,7.80
2022-09-22T11:55:00.818Z,6.10
2022-09-22T11:56:00.572Z,7.60
2022-09-22T11:57:00.585Z,9.70
2022-09-22T11:58:00.550Z,9.00
2022-09-22T11:59:00.540Z,5.10
2022-09-22T12:00:00.529Z,6.20
2022-09-22T12:01:00.520Z,7.40
2022-09-22T12:02:00.574Z,4.80
2022-09-22T12:03:02.444Z,6.10
2022-09-22T12:04:00.484Z,7.30
2022-09-22T12:05:00.476Z,5.90
2022-09-22T12:06:00.467Z,6.80
2022-09-22T12:07:00.458Z,6.20
2022-09-22T12:08:00.444Z,4.80
2022-09-22T12:09:00.434Z,6.30
2022-09-22T12:10:00.418Z,4.70
2022-09-22T12:11:00.410Z,4.50
2022-09-22T12:12:00.402Z,6.00
2022-09-22T12:13:00.428Z,4.80
2022-09-22T12:14:00.412Z,6.80
2022-09-22T12:15:00.398Z,6.00
2022-09-22T12:16:00.488Z,6.90
2022-09-22T12:17:00.340Z,5.90
2022-09-22T12:18:00.328Z,7.00
2022-09-22T12:19:00.422Z,6.90
2022-09-22T12:20:00.487Z,6.20
2022-09-22T12:21:00.313Z,7.00
2022-09-22T12:22:00.284Z,5.80
2022-09-22T12:23:00.306Z,6.90
2022-09-22T12:24:00.264Z,5.80
2022-09-22T12:25:00.273Z,4.70
2022-09-22T12:26:00.262Z,5.90
2022-09-22T12:27:00.233Z,6.40
2022-09-22T12:28:00.222Z,7.10
2022-09-22T12:29:00.235Z,5.70
2022-09-22T12:30:00.212Z,5.40
2022-09-22T12:31:00.371Z,5.20
2022-09-22T12:32:00.179Z,5.00
2022-09-22T12:33:00.168Z,6.50
2022-09-22T12:34:00.159Z,5.80
2022-09-22T12:35:00.154Z,5.60
2022-09-22T12:36:00.178Z,6.20
2022-09-22T12:37:00.152Z,6.50
2022-09-22T12:38:00.116Z,7.40
2022-09-22T12:39:00.100Z,14.90
2022-09-22T12:40:00.090Z,9.10
2022-09-22T12:41:00.085Z,5.20
2022-09-22T12:42:00.076Z,7.10
2022-09-22T12:43:00.059Z,5.40
2022-09-22T12:44:00.042Z,4.40
2022-09-22T12:45:00.071Z,6.00
2022-09-22T12:46:00.081Z,5.90
2022-09-22T12:47:00.133Z,6.90
2022-09-22T12:47:59.998Z,5.50
2022-09-22T12:48:59.993Z,5.90
2022-09-22T12:49:59.977Z,6.30
2022-09-22T12:50:59.968Z,7.60
2022-09-22T12:51:59.957Z,4.40
2022-09-22T12:52:59.950Z,7.30
2022-09-22T12:53:59.987Z,4.00
2022-09-22T12:54:59.939Z,6.50
2022-09-22T12:55:59.914Z,5.40
2022-09-22T12:57:00.021Z,5.00
2022-09-22T12:57:59.913Z,6.00
2022-09-22T12:58:59.955Z,5.30
2022-09-22T12:59:59.872Z,6.70
2022-09-22T13:00:59.920Z,7.20
2022-09-22T13:02:00.010Z,6.40
2022-09-22T13:02:59.840Z,5.10